Time;durP1;ratioP1;P1;durP2;ratioP2;P2;SDS_P1;SDS_P2;PMS_P1;PMS_P2;Temp;Humidity;BMP_temperature;BMP_pressure;BME280_temperature;BME280_humidity;BME280_pressure;Samples;Min_cycle;Max_cycle;Signal;HPM_P1;HPM_P2
2022/03/17 00:01:32;;;;;;;;;;;12.20;62.10;;;;;;5054550;28;20020;-81
2022/03/17 00:03:58;;;;;;;;;;;12.20;62.80;;;;;;5045959;28;20365;-81
2022/03/17 00:06:23;;;;;;;;;;;12.20;62.60;;;;;;5046706;28;19912;-81
2022/03/17 00:08:49;;;;;;;;;;;12.40;61.60;;;;;;5051185;28;19924;-79
2022/03/17 00:11:14;;;;;;;;;;;12.40;61.50;;;;;;5041438;28;19924;-80
2022/03/17 00:13:41;;;;;;;;;;;12.40;61.30;;;;;;5056596;28;19967;-81
2022/03/17 00:16:09;;;;;;;;;;;12.30;61.90;;;;;;5045631;28;19956;-81
2022/03/17 00:18:35;;;;;;;;;;;12.40;61.10;;;;;;5051034;28;19928;-80
2022/03/17 00:21:00;;;;;;;;;;;12.40;61.00;;;;;;5053272;28;19913;-80
2022/03/17 00:23:26;;;;;;;;;;;12.40;61.00;;;;;;5051632;28;19913;-80
2022/03/17 00:25:51;;;;;;;;;;;12.40;61.10;;;;;;5071826;28;19917;-79
2022/03/17 00:28:17;;;;;;;;;;;12.30;61.70;;;;;;5036920;28;19913;-80
2022/03/17 00:30:42;;;;;;;;;;;12.20;62.00;;;;;;5050255;28;19916;-80
2022/03/17 00:33:08;;;;;;;;;;;12.50;60.90;;;;;;5046842;28;19960;-80
2022/03/17 00:35:38;;;;;;;;;;;12.50;61.40;;;;;;5051837;28;20308;-81
2022/03/17 00:38:08;;;;;;;;;;;12.40;61.50;;;;;;5053232;28;19967;-81
2022/03/17 00:40:35;;;;;;;;;;;12.50;61.10;;;;;;5045420;28;19939;-81
2022/03/17 00:43:02;;;;;;;;;;;12.50;61.30;;;;;;5055557;28;19999;-80
2022/03/17 00:45:28;;;;;;;;;;;12.40;62.00;;;;;;5041375;28;19940;-81
2022/03/17 00:47:54;;;;;;;;;;;12.40;61.50;;;;;;5043777;28;20382;-79
2022/03/17 00:50:19;;;;;;;;;;;12.50;61.30;;;;;;5041846;28;19944;-80
2022/03/17 00:52:45;;;;;;;;;;;12.50;60.90;;;;;;5044884;28;19917;-81
2022/03/17 00:55:10;;;;;;;;;;;12.50;61.60;;;;;;5054027;28;19921;-79
2022/03/17 00:57:36;;;;;;;;;;;12.50;62.20;;;;;;5049798;28;20796;-79
2022/03/17 01:00:03;;;;;;;;;;;12.50;62.30;;;;;;5063616;28;19924;-79
2022/03/17 01:02:29;;;;;;;;;;;12.30;62.40;;;;;;5068676;28;19939;-79
2022/03/17 01:04:54;;;;;;;;;;;12.40;62.10;;;;;;5086890;28;19909;-79
2022/03/17 01:07:20;;;;;;;;;;;12.40;61.90;;;;;;5057103;28;19917;-81
2022/03/17 01:09:45;;;;;;;;;;;12.30;62.30;;;;;;5055791;28;19957;-80
2022/03/17 01:12:11;;;;;;;;;;;12.30;61.90;;;;;;5047118;28;19913;-80
2022/03/17 01:14:36;;;;;;;;;;;12.30;61.90;;;;;;5069115;28;19917;-79
2022/03/17 01:17:02;;;;;;;;;;;12.50;61.40;;;;;;5048060;28;19923;-79
2022/03/17 01:19:27;;;;;;;;;;;12.50;61.40;;;;;;5053382;28;19912;-80
2022/03/17 01:21:53;;;;;;;;;;;12.50;61.30;;;;;;5054508;28;20538;-80
2022/03/17 01:24:18;;;;;;;;;;;12.30;62.50;;;;;;5047572;28;19920;-79
2022/03/17 01:26:44;;;;;;;;;;;12.30;61.90;;;;;;5051278;28;19972;-80
2022/03/17 01:29:10;;;;;;;;;;;12.40;61.40;;;;;;5046706;28;19913;-78
2022/03/17 01:31:35;;;;;;;;;;;12.40;61.10;;;;;;5050237;28;19917;-80
2022/03/17 01:34:01;;;;;;;;;;;12.30;61.70;;;;;;5046898;28;19969;-79
2022/03/17 01:36:26;;;;;;;;;;;12.40;61.50;;;;;;5052689;28;19913;-80
2022/03/17 01:38:52;;;;;;;;;;;12.50;61.10;;;;;;5051682;28;20158;-82
2022/03/17 01:41:18;;;;;;;;;;;12.40;61.30;;;;;;5054284;28;19913;-82
2022/03/17 01:43:43;;;;;;;;;;;12.30;61.40;;;;;;5052637;28;19913;-82
2022/03/17 01:46:11;;;;;;;;;;;12.10;62.40;;;;;;5054351;28;20356;-81
2022/03/17 01:48:37;;;;;;;;;;;12.20;62.00;;;;;;5053039;28;19917;-81
2022/03/17 01:51:02;;;;;;;;;;;12.20;62.50;;;;;;5052719;28;20277;-81
2022/03/17 01:53:28;;;;;;;;;;;12.30;61.70;;;;;;5049309;28;19917;-82
2022/03/17 01:55:54;;;;;;;;;;;12.20;61.80;;;;;;5047963;28;20284;-81
2022/03/17 01:58:19;;;;;;;;;;;12.10;62.60;;;;;;5058411;28;19923;-82
2022/03/17 02:00:45;;;;;;;;;;;12.20;62.10;;;;;;5047298;28;19923;-82
2022/03/17 02:03:11;;;;;;;;;;;12.20;62.10;;;;;;5050991;28;19913;-82
2022/03/17 02:05:36;;;;;;;;;;;12.20;62.40;;;;;;5035215;28;19921;-82
2022/03/17 02:08:02;;;;;;;;;;;12.10;62.80;;;;;;5047256;28;19959;-82
2022/03/17 02:13:08;;;;;;;;;;;12.10;62.50;;;;;;5042226;28;20323;-83
2022/03/17 02:13:13;;;;;;;;;;;12.10;62.30;;;;;;5052870;28;20011;-82
2022/03/17 02:15:39;;;;;;;;;;;12.00;63.10;;;;;;5067247;28;19955;-82
2022/03/17 02:18:06;;;;;;;;;;;12.00;63.10;;;;;;5052635;28;19919;-81
2022/03/17 02:20:33;;;;;;;;;;;12.10;62.90;;;;;;5042135;28;19921;-81
2022/03/17 02:25:50;;;;;;;;;;;12.10;62.40;;;;;;5030070;28;19966;-82
2022/03/17 02:28:16;;;;;;;;;;;12.20;62.20;;;;;;5040522;28;19920;-80
2022/03/17 02:30:41;;;;;;;;;;;12.20;61.90;;;;;;5041157;28;19913;-81
2022/03/17 02:33:08;;;;;;;;;;;12.20;62.00;;;;;;5050582;28;19912;-82
2022/03/17 02:35:34;;;;;;;;;;;12.10;62.40;;;;;;5048342;28;19917;-82
2022/03/17 02:38:02;;;;;;;;;;;12.20;62.10;;;;;;5032365;28;19928;-81
2022/03/17 02:40:27;;;;;;;;;;;12.30;61.90;;;;;;5036327;28;19917;-81
2022/03/17 02:42:53;;;;;;;;;;;12.30;61.90;;;;;;5043212;28;19917;-81
2022/03/17 02:45:19;;;;;;;;;;;12.30;62.00;;;;;;5043144;28;19924;-81
2022/03/17 02:47:44;;;;;;;;;;;12.10;62.90;;;;;;5065750;28;20300;-80
2022/03/17 02:50:12;;;;;;;;;;;12.30;62.30;;;;;;5041816;28;19913;-80
2022/03/17 02:52:38;;;;;;;;;;;12.20;62.20;;;;;;5050596;28;20458;-82
2022/03/17 02:55:04;;;;;;;;;;;12.10;62.40;;;;;;5047484;28;19912;-80
2022/03/17 02:57:30;;;;;;;;;;;12.30;62.00;;;;;;5046351;28;19917;-81
2022/03/17 02:59:56;;;;;;;;;;;12.10;62.60;;;;;;5044072;28;19913;-80
2022/03/17 03:02:22;;;;;;;;;;;12.10;62.60;;;;;;5069730;28;19920;-79
2022/03/17 03:04:47;;;;;;;;;;;12.10;62.90;;;;;;5049105;28;19916;-80
2022/03/17 03:07:13;;;;;;;;;;;12.00;63.40;;;;;;5042158;28;19944;-81
2022/03/17 03:09:38;;;;;;;;;;;12.20;62.50;;;;;;5034875;28;19924;-81
2022/03/17 03:12:04;;;;;;;;;;;12.10;63.10;;;;;;5047469;28;20266;-81
2022/03/17 03:14:29;;;;;;;;;;;12.20;62.70;;;;;;5052012;28;19920;-80
2022/03/17 03:16:55;;;;;;;;;;;12.20;62.50;;;;;;5047667;28;20019;-81
2022/03/17 03:19:20;;;;;;;;;;;12.10;62.70;;;;;;5030979;28;20387;-81
2022/03/17 03:21:46;;;;;;;;;;;12.20;62.60;;;;;;5057929;28;19923;-80
2022/03/17 03:24:12;;;;;;;;;;;12.00;63.00;;;;;;5064503;28;19916;-80
2022/03/17 03:26:38;;;;;;;;;;;12.00;63.30;;;;;;5071204;28;19958;-81
2022/03/17 03:29:11;;;;;;;;;;;12.10;62.70;;;;;;5066243;28;19906;-80
2022/03/17 03:31:37;;;;;;;;;;;12.00;63.50;;;;;;5067868;28;19921;-82
2022/03/17 03:34:03;;;;;;;;;;;12.00;63.30;;;;;;5040377;28;20304;-81
2022/03/17 03:39:12;;;;;;;;;;;12.10;63.10;;;;;;5039312;28;19920;-81
2022/03/17 03:41:38;;;;;;;;;;;11.90;63.80;;;;;;5041424;28;19980;-82
2022/03/17 03:44:03;;;;;;;;;;;11.90;63.90;;;;;;5050377;28;19919;-82
2022/03/17 03:46:29;;;;;;;;;;;11.90;64.00;;;;;;5047156;28;19990;-81
2022/03/17 03:48:54;;;;;;;;;;;12.00;63.60;;;;;;5033422;28;20330;-82
2022/03/17 03:51:20;;;;;;;;;;;11.90;63.80;;;;;;5051635;28;19956;-82
2022/03/17 03:56:31;;;;;;;;;;;12.00;64.10;;;;;;5052816;28;20020;-81
2022/03/17 03:58:58;;;;;;;;;;;11.90;64.40;;;;;;5064565;28;19940;-82
2022/03/17 04:01:25;;;;;;;;;;;12.00;64.50;;;;;;5061080;28;20378;-80
2022/03/17 04:03:52;;;;;;;;;;;12.00;64.00;;;;;;5049773;28;19920;-82
2022/03/17 04:06:17;;;;;;;;;;;12.00;63.90;;;;;;5055075;28;19913;-83
2022/03/17 04:08:43;;;;;;;;;;;12.00;64.10;;;;;;5055393;28;19962;-83
2022/03/17 04:11:09;;;;;;;;;;;11.90;64.10;;;;;;5052773;28;20004;-84
2022/03/17 04:13:35;;;;;;;;;;;12.00;63.80;;;;;;5054774;28;19951;-82
2022/03/17 04:16:00;;;;;;;;;;;11.90;64.30;;;;;;5054218;28;20314;-82
2022/03/17 04:18:25;;;;;;;;;;;11.70;64.70;;;;;;5053928;28;19978;-82
2022/03/17 04:20:51;;;;;;;;;;;11.70;64.50;;;;;;5053663;28;19923;-83
2022/03/17 04:23:16;;;;;;;;;;;11.70;64.70;;;;;;5053458;28;20012;-82
2022/03/17 04:25:42;;;;;;;;;;;11.70;64.80;;;;;;5056964;28;19963;-82
2022/03/17 04:28:08;;;;;;;;;;;11.80;64.90;;;;;;5044830;28;20428;-82
2022/03/17 04:30:36;;;;;;;;;;;11.70;65.10;;;;;;5045927;28;19981;-83
2022/03/17 04:33:01;;;;;;;;;;;11.70;65.20;;;;;;5055248;28;19934;-82
2022/03/17 04:35:27;;;;;;;;;;;11.80;64.90;;;;;;5053235;28;20436;-83
2022/03/17 04:37:52;;;;;;;;;;;11.80;65.70;;;;;;5050216;28;19920;-81
2022/03/17 04:40:18;;;;;;;;;;;11.80;67.00;;;;;;5042394;28;20543;-83
2022/03/17 04:42:43;;;;;;;;;;;11.70;67.40;;;;;;5057560;28;19919;-82
2022/03/17 04:45:09;;;;;;;;;;;11.70;67.50;;;;;;5053782;28;19928;-81
2022/03/17 04:47:34;;;;;;;;;;;11.60;67.30;;;;;;5072885;28;20295;-82
2022/03/17 04:50:00;;;;;;;;;;;11.70;67.30;;;;;;5050360;28;19909;-81
2022/03/17 04:55:09;;;;;;;;;;;11.60;67.20;;;;;;5055863;28;19959;-82
2022/03/17 04:57:35;;;;;;;;;;;11.60;67.50;;;;;;5054263;28;20365;-82
2022/03/17 05:00:00;;;;;;;;;;;11.60;67.10;;;;;;5042584;28;20063;-82
2022/03/17 05:02:26;;;;;;;;;;;11.60;67.50;;;;;;5038351;28;19970;-82
2022/03/17 05:04:52;;;;;;;;;;;11.70;67.00;;;;;;5042707;28;19959;-81
2022/03/17 05:07:18;;;;;;;;;;;11.60;67.50;;;;;;5052033;28;19913;-81
2022/03/17 05:09:43;;;;;;;;;;;11.60;67.50;;;;;;5053011;28;19919;-81
2022/03/17 05:12:09;;;;;;;;;;;11.60;67.90;;;;;;5054036;28;20003;-82
2022/03/17 05:14:35;;;;;;;;;;;11.60;68.30;;;;;;5048247;28;19920;-81
2022/03/17 05:17:00;;;;;;;;;;;11.60;68.50;;;;;;5050394;28;19913;-82
2022/03/17 05:19:25;;;;;;;;;;;11.60;68.80;;;;;;5039638;28;20017;-83
2022/03/17 05:21:52;;;;;;;;;;;11.60;68.80;;;;;;5058548;28;19912;-83
2022/03/17 05:24:18;;;;;;;;;;;11.60;69.70;;;;;;5054359;28;20495;-82
2022/03/17 05:26:45;;;;;;;;;;;11.50;70.70;;;;;;5047557;28;19960;-81
2022/03/17 05:29:12;;;;;;;;;;;11.50;70.70;;;;;;5056292;28;20039;-82
2022/03/17 05:31:37;;;;;;;;;;;11.50;71.80;;;;;;5056063;28;19917;-81
2022/03/17 05:34:03;;;;;;;;;;;11.40;72.50;;;;;;5055415;28;20264;-82
2022/03/17 05:36:28;;;;;;;;;;;11.30;73.40;;;;;;5053645;28;19909;-81
2022/03/17 05:38:54;;;;;;;;;;;11.20;74.10;;;;;;5051554;28;20108;-81
2022/03/17 05:41:20;;;;;;;;;;;11.10;75.20;;;;;;5044708;28;20040;-82
2022/03/17 05:43:46;;;;;;;;;;;11.10;76.10;;;;;;5050095;28;19943;-81
2022/03/17 05:46:11;;;;;;;;;;;11.00;76.00;;;;;;5037824;28;19916;-81
2022/03/17 05:48:39;;;;;;;;;;;11.00;77.00;;;;;;5044876;28;19921;-80
2022/03/17 05:51:05;;;;;;;;;;;11.00;77.60;;;;;;5049181;28;19947;-81
2022/03/17 05:53:30;;;;;;;;;;;10.90;78.50;;;;;;5048101;28;19916;-81
2022/03/17 05:55:56;;;;;;;;;;;10.80;79.10;;;;;;5038526;28;19912;-82
2022/03/17 05:58:21;;;;;;;;;;;10.80;80.30;;;;;;5044612;28;19948;-81
2022/03/17 06:00:47;;;;;;;;;;;10.80;80.20;;;;;;5050292;28;19981;-81
2022/03/17 06:03:12;;;;;;;;;;;10.80;80.40;;;;;;5040008;28;19928;-80
2022/03/17 06:05:38;;;;;;;;;;;10.70;81.30;;;;;;5042032;28;19913;-81
2022/03/17 06:08:03;;;;;;;;;;;10.60;81.60;;;;;;5049510;28;19919;-82
2022/03/17 06:10:33;;;;;;;;;;;10.70;81.80;;;;;;5042338;28;19931;-81
2022/03/17 06:13:00;;;;;;;;;;;10.70;82.70;;;;;;5049559;28;19917;-81
2022/03/17 06:15:26;;;;;;;;;;;10.70;82.90;;;;;;5033658;28;20366;-80
2022/03/17 06:17:53;;;;;;;;;;;10.80;83.10;;;;;;5037956;28;20019;-81
2022/03/17 06:20:19;;;;;;;;;;;10.80;83.50;;;;;;5049128;28;19913;-82
2022/03/17 06:22:46;;;;;;;;;;;10.80;84.20;;;;;;5047705;28;19925;-82
2022/03/17 06:25:16;;;;;;;;;;;10.70;84.10;;;;;;5053421;28;19917;-82
2022/03/17 06:27:43;;;;;;;;;;;10.70;84.10;;;;;;5055243;28;19971;-81
2022/03/17 06:30:10;;;;;;;;;;;10.80;84.30;;;;;;5053633;28;20012;-81
2022/03/17 06:32:39;;;;;;;;;;;10.80;84.40;;;;;;5049852;28;19923;-82
2022/03/17 06:35:06;;;;;;;;;;;10.70;85.20;;;;;;5057353;28;19942;-79
2022/03/17 06:37:31;;;;;;;;;;;10.60;85.40;;;;;;5062954;28;19924;-82
2022/03/17 06:39:57;;;;;;;;;;;10.60;85.60;;;;;;5055563;28;19917;-80
2022/03/17 06:42:22;;;;;;;;;;;10.50;86.10;;;;;;5082492;28;19913;-81
2022/03/17 06:44:48;;;;;;;;;;;10.50;86.50;;;;;;5065659;28;19976;-81
2022/03/17 06:47:13;;;;;;;;;;;10.60;86.80;;;;;;5048540;28;19977;-81
2022/03/17 06:49:42;;;;;;;;;;;10.50;86.90;;;;;;5053341;28;19913;-81
2022/03/17 06:52:08;;;;;;;;;;;10.60;86.80;;;;;;5056422;28;19908;-81
2022/03/17 06:54:33;;;;;;;;;;;10.60;86.80;;;;;;5054697;28;20446;-80
2022/03/17 06:56:59;;;;;;;;;;;10.50;87.20;;;;;;5059440;28;19938;-82
2022/03/17 06:59:25;;;;;;;;;;;10.60;87.50;;;;;;5043052;28;19913;-82
2022/03/17 07:01:50;;;;;;;;;;;10.50;87.20;;;;;;5043031;28;19958;-82
2022/03/17 07:04:16;;;;;;;;;;;10.50;87.50;;;;;;5043302;28;19956;-81
2022/03/17 07:06:41;;;;;;;;;;;10.60;87.60;;;;;;5040657;28;19954;-80
2022/03/17 07:09:07;;;;;;;;;;;10.50;87.50;;;;;;5049861;28;19931;-81
2022/03/17 07:11:32;;;;;;;;;;;10.50;87.30;;;;;;5049826;28;19996;-81
2022/03/17 07:13:58;;;;;;;;;;;10.50;87.20;;;;;;5053542;28;19923;-82
2022/03/17 07:16:23;;;;;;;;;;;10.40;86.80;;;;;;5047369;28;19932;-81
2022/03/17 07:18:49;;;;;;;;;;;10.30;86.90;;;;;;5045557;28;19917;-81
2022/03/17 07:21:15;;;;;;;;;;;10.20;87.60;;;;;;5035010;28;19909;-81
2022/03/17 07:23:40;;;;;;;;;;;10.20;87.30;;;;;;5076013;28;19920;-81
2022/03/17 07:26:06;;;;;;;;;;;10.10;86.70;;;;;;5055428;28;19942;-80
2022/03/17 07:28:32;;;;;;;;;;;10.00;87.00;;;;;;5051988;28;19913;-81
2022/03/17 07:30:57;;;;;;;;;;;10.00;87.20;;;;;;5072155;28;19913;-80
2022/03/17 07:33:23;;;;;;;;;;;9.90;86.60;;;;;;5076074;28;19919;-82
2022/03/17 07:35:48;;;;;;;;;;;10.00;86.20;;;;;;5053328;28;20362;-81
2022/03/17 07:38:14;;;;;;;;;;;10.00;85.80;;;;;;5079401;28;19975;-82
2022/03/17 07:40:40;;;;;;;;;;;10.00;85.60;;;;;;5064726;28;19992;-81
2022/03/17 07:43:07;;;;;;;;;;;9.90;85.50;;;;;;5058081;28;19913;-81
2022/03/17 07:45:32;;;;;;;;;;;9.80;85.80;;;;;;5060384;28;19913;-82
2022/03/17 07:47:58;;;;;;;;;;;9.90;86.00;;;;;;5064840;28;19943;-80
2022/03/17 07:50:23;;;;;;;;;;;9.90;86.20;;;;;;5058153;28;20265;-82
2022/03/17 07:52:49;;;;;;;;;;;10.00;85.70;;;;;;5056196;28;20021;-81
2022/03/17 07:55:17;;;;;;;;;;;10.00;85.50;;;;;;5052179;28;19913;-81
2022/03/17 07:57:43;;;;;;;;;;;9.90;85.50;;;;;;5043813;28;19973;-81
2022/03/17 08:00:11;;;;;;;;;;;9.90;85.60;;;;;;5054354;28;19924;-81
2022/03/17 08:02:37;;;;;;;;;;;9.90;85.00;;;;;;5057555;28;19908;-80
2022/03/17 08:05:02;;;;;;;;;;;9.80;85.40;;;;;;5041339;28;20331;-81
2022/03/17 08:07:28;;;;;;;;;;;9.80;85.20;;;;;;5038583;28;19913;-81
2022/03/17 08:09:54;;;;;;;;;;;9.80;85.60;;;;;;5058748;28;19921;-80
2022/03/17 08:12:19;;;;;;;;;;;9.80;85.80;;;;;;5058613;28;19923;-81
2022/03/17 08:14:45;;;;;;;;;;;9.80;85.30;;;;;;5054178;28;19917;-81
2022/03/17 08:17:10;;;;;;;;;;;9.80;85.80;;;;;;5058099;28;19921;-80
2022/03/17 08:19:36;;;;;;;;;;;9.70;84.60;;;;;;5058276;28;19912;-81
2022/03/17 08:22:01;;;;;;;;;;;9.60;84.40;;;;;;5049048;28;20341;-81
2022/03/17 08:24:27;;;;;;;;;;;9.70;83.70;;;;;;5057968;28;19977;-80
2022/03/17 08:26:54;;;;;;;;;;;9.70;83.50;;;;;;5060471;28;20270;-80
2022/03/17 08:29:20;;;;;;;;;;;9.70;83.70;;;;;;5059885;28;20478;-80
2022/03/17 08:31:45;;;;;;;;;;;9.70;82.40;;;;;;5058394;28;19948;-81
2022/03/17 08:34:11;;;;;;;;;;;9.80;81.20;;;;;;5056199;28;19916;-80
2022/03/17 08:36:36;;;;;;;;;;;9.90;80.70;;;;;;5050432;28;19972;-80
2022/03/17 08:39:02;;;;;;;;;;;10.00;81.10;;;;;;5056622;28;19913;-81
2022/03/17 08:41:27;;;;;;;;;;;10.00;79.80;;;;;;5056764;28;19929;-81
2022/03/17 08:43:53;;;;;;;;;;;9.90;79.90;;;;;;5054778;28;20250;-80
2022/03/17 08:49:18;;;;;;;;;;;9.80;79.30;;;;;;5055074;28;20038;-81
2022/03/17 08:51:44;;;;;;;;;;;9.70;80.70;;;;;;5047729;28;19912;-81
2022/03/17 08:54:10;;;;;;;;;;;9.60;81.50;;;;;;5055474;28;19936;-81
2022/03/17 08:56:36;;;;;;;;;;;9.60;82.00;;;;;;5053561;28;20323;-80
2022/03/17 08:59:03;;;;;;;;;;;9.60;81.90;;;;;;5054646;28;19909;-80
2022/03/17 09:01:28;;;;;;;;;;;9.60;80.40;;;;;;5054753;28;19986;-81
2022/03/17 09:03:54;;;;;;;;;;;9.50;78.80;;;;;;5056093;28;19913;-80
2022/03/17 09:06:20;;;;;;;;;;;9.50;79.50;;;;;;5055765;28;20054;-80
2022/03/17 09:08:46;;;;;;;;;;;9.60;78.90;;;;;;5054732;28;20229;-79
2022/03/17 09:11:13;;;;;;;;;;;9.60;79.30;;;;;;5054504;28;19999;-81
2022/03/17 09:13:39;;;;;;;;;;;9.60;79.30;;;;;;5055896;28;19924;-81
2022/03/17 09:16:06;;;;;;;;;;;9.50;78.50;;;;;;5055151;28;19913;-80
2022/03/17 09:18:32;;;;;;;;;;;9.50;78.70;;;;;;5056820;28;19912;-81
2022/03/17 09:20:59;;;;;;;;;;;9.50;79.00;;;;;;5051728;28;19916;-80
2022/03/17 09:23:25;;;;;;;;;;;9.60;77.90;;;;;;5053552;28;19908;-80
2022/03/17 09:25:50;;;;;;;;;;;9.60;79.20;;;;;;5037932;28;19928;-81
2022/03/17 09:28:16;;;;;;;;;;;9.50;77.90;;;;;;5050760;28;19980;-80
2022/03/17 09:30:41;;;;;;;;;;;9.50;79.00;;;;;;5049659;28;19909;-80
2022/03/17 09:33:07;;;;;;;;;;;9.60;78.90;;;;;;5058566;28;19984;-82
2022/03/17 09:35:34;;;;;;;;;;;9.60;78.30;;;;;;5056134;28;20349;-81
2022/03/17 09:38:00;;;;;;;;;;;9.60;77.80;;;;;;5051547;28;19931;-80
2022/03/17 09:40:25;;;;;;;;;;;9.60;78.30;;;;;;5052760;28;20007;-79
2022/03/17 09:43:18;;;;;;;;;;;9.60;78.10;;;;;;5052827;28;19913;-79
2022/03/17 09:45:38;;;;;;;;;;;9.60;78.90;;;;;;5072733;28;19968;-79
2022/03/17 09:48:04;;;;;;;;;;;9.60;78.00;;;;;;5075124;28;19920;-78
2022/03/17 09:50:29;;;;;;;;;;;9.70;77.90;;;;;;5075068;28;19924;-78
2022/03/17 09:52:55;;;;;;;;;;;9.60;78.00;;;;;;5076298;28;19916;-80
2022/03/17 09:55:22;;;;;;;;;;;9.80;77.30;;;;;;5061406;28;19923;-81
2022/03/17 09:57:47;;;;;;;;;;;9.70;76.40;;;;;;5053690;28;19913;-80
2022/03/17 10:00:15;;;;;;;;;;;9.60;76.30;;;;;;5055651;28;20063;-81
2022/03/17 10:02:41;;;;;;;;;;;9.50;76.40;;;;;;5056186;28;19932;-81
2022/03/17 10:05:11;;;;;;;;;;;9.70;77.10;;;;;;5050561;28;19923;-79
2022/03/17 10:07:37;;;;;;;;;;;9.70;77.20;;;;;;5063755;28;19916;-80
2022/03/17 10:10:02;;;;;;;;;;;9.70;77.30;;;;;;5065244;28;19916;-80
2022/03/17 10:12:30;;;;;;;;;;;9.70;78.40;;;;;;5062841;28;19917;-81
2022/03/17 10:14:56;;;;;;;;;;;9.80;76.20;;;;;;5054990;28;19924;-80
2022/03/17 10:17:31;;;;;;;;;;;9.80;76.00;;;;;;5051458;28;20344;-82
2022/03/17 10:20:13;;;;;;;;;;;9.90;77.10;;;;;;5051645;28;19920;-82
2022/03/17 10:22:42;;;;;;;;;;;9.90;77.70;;;;;;5053166;28;19921;-82
2022/03/17 10:25:08;;;;;;;;;;;9.90;77.10;;;;;;5047965;28;19932;-82
2022/03/17 10:27:40;;;;;;;;;;;9.90;76.30;;;;;;5053502;28;20654;-82
2022/03/17 10:30:06;;;;;;;;;;;9.90;75.80;;;;;;5048311;28;20480;-81
2022/03/17 10:32:32;;;;;;;;;;;9.80;76.10;;;;;;5053236;28;19913;-82
2022/03/17 10:34:58;;;;;;;;;;;9.90;76.30;;;;;;5050611;28;19994;-81
2022/03/17 10:37:24;;;;;;;;;;;9.90;75.50;;;;;;5045373;28;19909;-81
2022/03/17 10:39:51;;;;;;;;;;;10.00;75.90;;;;;;5057464;28;19964;-81
2022/03/17 10:42:27;;;;;;;;;;;10.00;75.70;;;;;;5056550;28;19913;-80
2022/03/17 10:44:55;;;;;;;;;;;9.90;75.60;;;;;;5075150;28;19912;-82
2022/03/17 10:47:24;;;;;;;;;;;10.10;76.60;;;;;;5039679;28;19940;-82
2022/03/17 10:50:04;;;;;;;;;;;10.10;75.50;;;;;;5054090;28;20040;-79
2022/03/17 10:52:45;;;;;;;;;;;10.00;75.30;;;;;;5068417;28;19925;-81
2022/03/17 10:55:11;;;;;;;;;;;10.10;76.10;;;;;;5053422;28;19917;-81
2022/03/17 10:57:37;;;;;;;;;;;10.10;75.80;;;;;;5048886;28;19932;-84
2022/03/17 11:00:04;;;;;;;;;;;10.10;74.40;;;;;;5044961;28;19913;-83
2022/03/17 11:02:33;;;;;;;;;;;10.00;73.90;;;;;;5056011;28;19913;-80
2022/03/17 11:05:05;;;;;;;;;;;10.10;74.30;;;;;;5081909;28;19917;-83
2022/03/17 11:07:31;;;;;;;;;;;10.20;74.10;;;;;;5053266;28;19920;-82
2022/03/17 11:09:57;;;;;;;;;;;10.20;73.30;;;;;;5051344;28;19985;-82
2022/03/17 11:12:25;;;;;;;;;;;10.10;72.00;;;;;;5035867;28;19935;-82
2022/03/17 11:14:51;;;;;;;;;;;10.20;72.50;;;;;;5041464;28;19925;-81
2022/03/17 11:17:20;;;;;;;;;;;10.20;72.90;;;;;;5047695;28;19948;-83
2022/03/17 11:19:46;;;;;;;;;;;10.20;71.80;;;;;;5052623;28;19913;-82
2022/03/17 11:22:15;;;;;;;;;;;10.20;71.70;;;;;;5057402;28;20285;-81
2022/03/17 11:24:41;;;;;;;;;;;10.10;73.50;;;;;;5049517;28;19917;-82
2022/03/17 11:27:09;;;;;;;;;;;10.20;72.70;;;;;;5049908;28;19917;-82
2022/03/17 11:29:44;;;;;;;;;;;10.30;72.70;;;;;;5052160;28;19972;-83
2022/03/17 11:32:29;;;;;;;;;;;10.40;71.50;;;;;;5051503;28;19919;-83
2022/03/17 11:35:11;;;;;;;;;;;10.40;70.20;;;;;;5044929;28;19923;-81
2022/03/17 11:37:37;;;;;;;;;;;10.40;70.00;;;;;;5053589;28;20349;-82
2022/03/17 11:40:10;;;;;;;;;;;10.60;69.80;;;;;;5049854;28;19913;-80
2022/03/17 11:42:57;;;;;;;;;;;10.50;69.10;;;;;;5052507;28;19912;-81
2022/03/17 11:45:22;;;;;;;;;;;10.50;68.80;;;;;;5056397;28;19913;-82
2022/03/17 11:47:55;;;;;;;;;;;10.40;69.20;;;;;;5056224;28;19935;-81
2022/03/17 11:50:23;;;;;;;;;;;10.40;70.10;;;;;;5055936;28;20365;-80
2022/03/17 11:52:55;;;;;;;;;;;10.60;70.10;;;;;;5059302;28;19948;-81
2022/03/17 11:55:33;;;;;;;;;;;10.60;68.50;;;;;;5059578;28;19913;-81
2022/03/17 11:58:18;;;;;;;;;;;10.60;68.20;;;;;;5057351;28;19924;-82
2022/03/17 12:01:01;;;;;;;;;;;10.50;67.80;;;;;;5068813;28;19909;-81
2022/03/17 12:03:27;;;;;;;;;;;10.50;67.00;;;;;;5056013;28;19920;-85
2022/03/17 12:06:13;;;;;;;;;;;10.50;68.50;;;;;;5054242;28;19913;-84
2022/03/17 12:08:41;;;;;;;;;;;10.50;67.70;;;;;;5055967;28;20011;-82
2022/03/17 12:11:08;;;;;;;;;;;10.70;66.60;;;;;;5056686;28;19916;-80
2022/03/17 12:13:35;;;;;;;;;;;10.70;66.80;;;;;;5061927;28;19939;-79
2022/03/17 12:16:01;;;;;;;;;;;10.80;66.10;;;;;;5066430;28;19958;-80
2022/03/17 12:18:28;;;;;;;;;;;10.90;66.60;;;;;;5082426;28;19909;-78
2022/03/17 12:20:54;;;;;;;;;;;11.10;66.30;;;;;;5072256;28;19913;-80
2022/03/17 12:23:42;;;;;;;;;;;11.20;63.30;;;;;;5087099;28;19909;-80
2022/03/17 12:26:07;;;;;;;;;;;11.10;64.70;;;;;;5049321;28;19925;-80
2022/03/17 12:28:33;;;;;;;;;;;11.10;63.40;;;;;;5043672;28;19916;-80
2022/03/17 12:30:59;;;;;;;;;;;11.20;63.90;;;;;;5049906;28;19999;-81
2022/03/17 12:33:25;;;;;;;;;;;11.00;62.00;;;;;;5055654;28;19920;-80
2022/03/17 12:36:06;;;;;;;;;;;11.10;62.40;;;;;;5051808;28;19913;-80
2022/03/17 12:38:32;;;;;;;;;;;11.30;63.20;;;;;;5070673;28;19912;-80
2022/03/17 12:40:58;;;;;;;;;;;11.40;62.60;;;;;;5054293;28;20320;-80
2022/03/17 12:43:24;;;;;;;;;;;11.60;62.10;;;;;;5036713;28;19913;-81
2022/03/17 12:45:51;;;;;;;;;;;11.70;62.20;;;;;;5043257;28;20007;-81
2022/03/17 12:48:17;;;;;;;;;;;11.60;62.20;;;;;;5046260;28;19932;-79
2022/03/17 12:50:44;;;;;;;;;;;11.60;62.70;;;;;;5060434;28;19936;-81
2022/03/17 12:53:12;;;;;;;;;;;11.60;61.80;;;;;;5080000;28;19921;-81
2022/03/17 12:55:38;;;;;;;;;;;11.50;61.00;;;;;;5066674;28;20387;-81
2022/03/17 12:58:04;;;;;;;;;;;11.40;60.90;;;;;;5062401;28;19913;-82
2022/03/17 13:00:30;;;;;;;;;;;11.30;62.20;;;;;;5073517;28;19921;-82
2022/03/17 13:02:57;;;;;;;;;;;11.30;63.20;;;;;;5081910;28;20475;-82
2022/03/17 13:08:08;;;;;;;;;;;11.30;62.40;;;;;;5068736;28;19919;-82
2022/03/17 13:16:03;;;;;;;;;;;11.20;59.60;;;;;;5068743;28;19928;-81
2022/03/17 13:18:39;;;;;;;;;;;11.10;59.70;;;;;;5051340;28;19917;-82
2022/03/17 13:21:05;;;;;;;;;;;11.00;60.50;;;;;;5067400;28;19916;-80
2022/03/17 13:23:36;;;;;;;;;;;11.00;62.30;;;;;;5062511;28;19915;-80
2022/03/17 13:26:02;;;;;;;;;;;10.90;62.00;;;;;;5064992;28;19920;-81
2022/03/17 13:28:28;;;;;;;;;;;11.00;60.20;;;;;;5070685;28;19923;-83
2022/03/17 13:30:53;;;;;;;;;;;11.10;61.60;;;;;;5065415;28;19913;-84
2022/03/17 13:33:32;;;;;;;;;;;11.20;61.00;;;;;;5091491;28;19955;-82
2022/03/17 13:35:58;;;;;;;;;;;11.30;59.40;;;;;;5066601;28;19969;-84
2022/03/17 13:38:31;;;;;;;;;;;11.20;60.30;;;;;;5073849;28;19980;-83
2022/03/17 13:40:57;;;;;;;;;;;11.30;59.70;;;;;;5061380;28;19917;-84
2022/03/17 13:43:26;;;;;;;;;;;11.30;59.80;;;;;;5070271;28;19944;-84
2022/03/17 13:48:28;;;;;;;;;;;11.40;60.10;;;;;;5442165;22;19917;-81
2022/03/17 13:50:55;;;;;;;;;;;11.20;59.60;;;;;;5074730;28;19912;-83
2022/03/17 13:53:30;;;;;;;;;;;11.30;58.80;;;;;;5062976;28;19971;-82
2022/03/17 13:56:03;;;;;;;;;;;11.20;59.40;;;;;;5062692;28;19940;-81
2022/03/17 13:58:32;;;;;;;;;;;11.20;60.70;;;;;;5077737;28;19980;-82
2022/03/17 14:01:13;;;;;;;;;;;11.10;58.90;;;;;;5067439;28;20239;-80
2022/03/17 14:03:46;;;;;;;;;;;11.10;59.30;;;;;;5080140;28;19995;-81
2022/03/17 14:06:15;;;;;;;;;;;10.80;60.40;;;;;;5068698;28;19984;-81
2022/03/17 14:08:48;;;;;;;;;;;10.80;60.70;;;;;;5062571;28;20366;-82
2022/03/17 14:11:14;;;;;;;;;;;10.80;61.50;;;;;;5047731;28;19955;-81
2022/03/17 14:13:41;;;;;;;;;;;11.00;60.90;;;;;;5048232;28;20332;-84
2022/03/17 14:16:10;;;;;;;;;;;11.00;60.70;;;;;;5075290;28;19916;-81
2022/03/17 14:18:36;;;;;;;;;;;11.00;60.40;;;;;;5069658;28;19928;-81
2022/03/17 14:21:02;;;;;;;;;;;11.10;59.50;;;;;;5067261;28;19913;-82
2022/03/17 14:26:13;;;;;;;;;;;11.10;60.10;;;;;;5063423;28;19977;-82
2022/03/17 14:28:39;;;;;;;;;;;11.10;60.40;;;;;;5059328;28;19913;-81
2022/03/17 14:31:05;;;;;;;;;;;11.00;60.30;;;;;;5059967;28;19916;-83
2022/03/17 14:33:30;;;;;;;;;;;11.00;59.30;;;;;;5058067;28;20007;-83
2022/03/17 14:35:56;;;;;;;;;;;10.80;59.00;;;;;;5045127;28;19924;-82
2022/03/17 14:38:21;;;;;;;;;;;10.90;59.50;;;;;;5065038;28;20012;-83
2022/03/17 14:40:48;;;;;;;;;;;11.00;57.90;;;;;;5073370;28;19923;-82
2022/03/17 14:43:14;;;;;;;;;;;10.90;57.80;;;;;;5072253;28;19912;-84
2022/03/17 14:45:40;;;;;;;;;;;10.80;57.50;;;;;;5070358;28;19913;-83